sensor_id;sensor_type;location;lat;lon;timestamp;P1;durP1;ratioP1;P2;durP2;ratioP2
9156;SDS011;4613;48.392;9.998;2023-02-24T00:01:11;3.77;;;3.07;;
9156;SDS011;4613;48.392;9.998;2023-02-24T00:04:07;4.53;;;3.00;;
9156;SDS011;4613;48.392;9.998;2023-02-24T00:07:01;4.60;;;3.27;;
9156;SDS011;4613;48.392;9.998;2023-02-24T00:09:51;5.17;;;3.70;;
9156;SDS011;4613;48.392;9.998;2023-02-24T00:12:40;6.53;;;3.30;;
9156;SDS011;4613;48.392;9.998;2023-02-24T00:15:30;5.40;;;3.57;;
9156;SDS011;4613;48.392;9.998;2023-02-24T00:18:19;5.60;;;3.50;;
9156;SDS011;4613;48.392;9.998;2023-02-24T00:21:10;4.27;;;3.03;;
9156;SDS011;4613;48.392;9.998;2023-02-24T00:24:04;4.23;;;2.93;;
9156;SDS011;4613;48.392;9.998;2023-02-24T00:27:00;3.90;;;2.83;;
9156;SDS011;4613;48.392;9.998;2023-02-24T00:29:55;4.17;;;3.07;;
9156;SDS011;4613;48.392;9.998;2023-02-24T00:32:45;6.23;;;3.50;;
9156;SDS011;4613;48.392;9.998;2023-02-24T00:35:34;5.40;;;3.33;;
9156;SDS011;4613;48.392;9.998;2023-02-24T00:38:23;4.43;;;3.33;;
9156;SDS011;4613;48.392;9.998;2023-02-24T00:41:14;8.47;;;3.70;;
9156;SDS011;4613;48.392;9.998;2023-02-24T00:44:06;5.07;;;3.30;;
9156;SDS011;4613;48.392;9.998;2023-02-24T00:46:57;5.20;;;2.90;;
9156;SDS011;4613;48.392;9.998;2023-02-24T00:49:50;4.80;;;2.90;;
9156;SDS011;4613;48.392;9.998;2023-02-24T00:52:41;5.43;;;3.27;;
9156;SDS011;4613;48.392;9.998;2023-02-24T00:55:30;5.60;;;3.30;;
9156;SDS011;4613;48.392;9.998;2023-02-24T00:58:24;4.13;;;3.20;;
9156;SDS011;4613;48.392;9.998;2023-02-24T01:01:18;5.40;;;3.40;;
9156;SDS011;4613;48.392;9.998;2023-02-24T01:04:11;7.17;;;3.70;;
9156;SDS011;4613;48.392;9.998;2023-02-24T01:07:01;6.50;;;3.10;;
9156;SDS011;4613;48.392;9.998;2023-02-24T01:09:51;4.10;;;3.10;;
9156;SDS011;4613;48.392;9.998;2023-02-24T01:12:41;5.37;;;3.17;;
9156;SDS011;4613;48.392;9.998;2023-02-24T01:15:37;5.53;;;3.40;;
9156;SDS011;4613;48.392;9.998;2023-02-24T01:18:26;5.50;;;2.80;;
9156;SDS011;4613;48.392;9.998;2023-02-24T01:21:19;4.83;;;3.00;;
9156;SDS011;4613;48.392;9.998;2023-02-24T01:24:08;4.37;;;3.37;;
9156;SDS011;4613;48.392;9.998;2023-02-24T01:27:00;5.03;;;3.30;;
9156;SDS011;4613;48.392;9.998;2023-02-24T01:29:50;4.90;;;3.00;;
9156;SDS011;4613;48.392;9.998;2023-02-24T01:32:40;4.30;;;3.20;;
9156;SDS011;4613;48.392;9.998;2023-02-24T01:35:31;6.37;;;3.20;;
9156;SDS011;4613;48.392;9.998;2023-02-24T01:38:22;4.60;;;3.37;;
9156;SDS011;4613;48.392;9.998;2023-02-24T01:41:14;6.47;;;3.00;;
9156;SDS011;4613;48.392;9.998;2023-02-24T01:47:21;4.27;;;3.37;;
9156;SDS011;4613;48.392;9.998;2023-02-24T01:50:10;3.30;;;2.80;;
9156;SDS011;4613;48.392;9.998;2023-02-24T01:53:05;5.33;;;3.40;;
9156;SDS011;4613;48.392;9.998;2023-02-24T01:55:56;5.73;;;3.30;;
9156;SDS011;4613;48.392;9.998;2023-02-24T01:58:46;5.47;;;3.87;;
9156;SDS011;4613;48.392;9.998;2023-02-24T02:01:38;4.93;;;3.70;;
9156;SDS011;4613;48.392;9.998;2023-02-24T02:04:33;5.77;;;3.60;;
9156;SDS011;4613;48.392;9.998;2023-02-24T02:07:30;3.37;;;3.03;;
9156;SDS011;4613;48.392;9.998;2023-02-24T02:10:19;3.73;;;2.97;;
9156;SDS011;4613;48.392;9.998;2023-02-24T02:13:10;5.90;;;3.30;;
9156;SDS011;4613;48.392;9.998;2023-02-24T02:19:21;4.40;;;3.37;;
9156;SDS011;4613;48.392;9.998;2023-02-24T02:29:12;4.83;;;3.00;;
9156;SDS011;4613;48.392;9.998;2023-02-24T02:36:03;3.97;;;3.00;;
9156;SDS011;4613;48.392;9.998;2023-02-24T02:39:21;4.43;;;3.50;;
9156;SDS011;4613;48.392;9.998;2023-02-24T02:42:29;5.20;;;3.67;;
9156;SDS011;4613;48.392;9.998;2023-02-24T02:45:36;6.20;;;3.53;;
9156;SDS011;4613;48.392;9.998;2023-02-24T02:51:52;5.17;;;3.37;;
9156;SDS011;4613;48.392;9.998;2023-02-24T02:58:16;6.00;;;3.97;;
9156;SDS011;4613;48.392;9.998;2023-02-24T03:01:11;6.13;;;3.80;;
9156;SDS011;4613;48.392;9.998;2023-02-24T03:04:07;6.93;;;3.60;;
9156;SDS011;4613;48.392;9.998;2023-02-24T03:07:00;7.60;;;3.97;;
9156;SDS011;4613;48.392;9.998;2023-02-24T03:09:54;7.63;;;4.40;;
9156;SDS011;4613;48.392;9.998;2023-02-24T03:12:52;7.10;;;4.13;;
9156;SDS011;4613;48.392;9.998;2023-02-24T03:15:44;7.20;;;4.73;;
9156;SDS011;4613;48.392;9.998;2023-02-24T03:18:39;7.27;;;4.43;;
9156;SDS011;4613;48.392;9.998;2023-02-24T03:21:39;6.37;;;4.40;;
9156;SDS011;4613;48.392;9.998;2023-02-24T03:24:35;8.13;;;4.87;;
9156;SDS011;4613;48.392;9.998;2023-02-24T03:27:29;8.33;;;4.63;;
9156;SDS011;4613;48.392;9.998;2023-02-24T03:30:27;6.00;;;4.20;;
9156;SDS011;4613;48.392;9.998;2023-02-24T03:33:41;6.53;;;4.30;;
9156;SDS011;4613;48.392;9.998;2023-02-24T03:36:48;7.53;;;4.30;;
9156;SDS011;4613;48.392;9.998;2023-02-24T03:39:39;6.20;;;4.20;;
9156;SDS011;4613;48.392;9.998;2023-02-24T03:42:40;9.03;;;4.90;;
9156;SDS011;4613;48.392;9.998;2023-02-24T03:45:35;7.97;;;4.60;;
9156;SDS011;4613;48.392;9.998;2023-02-24T03:48:26;7.07;;;4.00;;
9156;SDS011;4613;48.392;9.998;2023-02-24T03:51:17;7.57;;;4.70;;
9156;SDS011;4613;48.392;9.998;2023-02-24T03:54:23;6.63;;;4.33;;
9156;SDS011;4613;48.392;9.998;2023-02-24T04:00:57;6.93;;;4.40;;
9156;SDS011;4613;48.392;9.998;2023-02-24T04:07:33;6.33;;;4.03;;
9156;SDS011;4613;48.392;9.998;2023-02-24T04:13:44;7.10;;;4.60;;
9156;SDS011;4613;48.392;9.998;2023-02-24T04:19:36;9.40;;;4.45;;
9156;SDS011;4613;48.392;9.998;2023-02-24T04:22:28;5.88;;;3.80;;
9156;SDS011;4613;48.392;9.998;2023-02-24T04:25:22;9.55;;;4.03;;
9156;SDS011;4613;48.392;9.998;2023-02-24T04:28:15;5.28;;;3.53;;
9156;SDS011;4613;48.392;9.998;2023-02-24T04:31:09;5.22;;;3.50;;
9156;SDS011;4613;48.392;9.998;2023-02-24T04:34:05;7.47;;;3.92;;
9156;SDS011;4613;48.392;9.998;2023-02-24T04:37:05;6.93;;;4.00;;
9156;SDS011;4613;48.392;9.998;2023-02-24T04:39:56;7.38;;;4.10;;
9156;SDS011;4613;48.392;9.998;2023-02-24T04:42:50;5.47;;;3.72;;
9156;SDS011;4613;48.392;9.998;2023-02-24T04:45:40;4.88;;;3.78;;
9156;SDS011;4613;48.392;9.998;2023-02-24T04:48:30;5.85;;;3.38;;
9156;SDS011;4613;48.392;9.998;2023-02-24T04:51:19;5.47;;;3.80;;
9156;SDS011;4613;48.392;9.998;2023-02-24T04:54:08;6.28;;;3.85;;
9156;SDS011;4613;48.392;9.998;2023-02-24T04:56:58;5.28;;;3.45;;
9156;SDS011;4613;48.392;9.998;2023-02-24T04:59:48;4.55;;;3.08;;
9156;SDS011;4613;48.392;9.998;2023-02-24T05:02:37;10.32;;;3.53;;
9156;SDS011;4613;48.392;9.998;2023-02-24T05:05:27;6.53;;;3.78;;
9156;SDS011;4613;48.392;9.998;2023-02-24T05:08:21;4.65;;;3.10;;
9156;SDS011;4613;48.392;9.998;2023-02-24T05:11:13;4.22;;;3.30;;
9156;SDS011;4613;48.392;9.998;2023-02-24T05:14:10;7.03;;;3.83;;
9156;SDS011;4613;48.392;9.998;2023-02-24T05:17:03;4.67;;;3.33;;
9156;SDS011;4613;48.392;9.998;2023-02-24T05:19:52;4.40;;;2.95;;
9156;SDS011;4613;48.392;9.998;2023-02-24T05:23:01;4.03;;;2.92;;
9156;SDS011;4613;48.392;9.998;2023-02-24T05:25:50;4.80;;;3.20;;
9156;SDS011;4613;48.392;9.998;2023-02-24T05:28:44;3.60;;;2.65;;
9156;SDS011;4613;48.392;9.998;2023-02-24T05:31:39;3.95;;;3.38;;
9156;SDS011;4613;48.392;9.998;2023-02-24T05:34:30;4.20;;;2.80;;
9156;SDS011;4613;48.392;9.998;2023-02-24T05:37:21;4.85;;;3.33;;
9156;SDS011;4613;48.392;9.998;2023-02-24T05:40:11;4.68;;;2.97;;
9156;SDS011;4613;48.392;9.998;2023-02-24T05:43:03;5.07;;;3.53;;
9156;SDS011;4613;48.392;9.998;2023-02-24T05:45:53;11.00;;;4.00;;
9156;SDS011;4613;48.392;9.998;2023-02-24T05:48:48;6.60;;;3.70;;
9156;SDS011;4613;48.392;9.998;2023-02-24T05:51:39;4.22;;;3.47;;
9156;SDS011;4613;48.392;9.998;2023-02-24T05:54:33;4.70;;;3.58;;
9156;SDS011;4613;48.392;9.998;2023-02-24T05:57:24;6.00;;;3.42;;
9156;SDS011;4613;48.392;9.998;2023-02-24T06:00:20;3.45;;;3.00;;
9156;SDS011;4613;48.392;9.998;2023-02-24T06:03:13;5.78;;;3.78;;
9156;SDS011;4613;48.392;9.998;2023-02-24T06:06:04;8.15;;;4.40;;
9156;SDS011;4613;48.392;9.998;2023-02-24T06:08:56;7.68;;;3.70;;
9156;SDS011;4613;48.392;9.998;2023-02-24T06:11:45;8.38;;;3.40;;
9156;SDS011;4613;48.392;9.998;2023-02-24T06:14:35;5.57;;;3.15;;
9156;SDS011;4613;48.392;9.998;2023-02-24T06:17:24;5.82;;;3.40;;
9156;SDS011;4613;48.392;9.998;2023-02-24T06:20:14;6.85;;;4.05;;
9156;SDS011;4613;48.392;9.998;2023-02-24T06:23:04;7.53;;;3.85;;
9156;SDS011;4613;48.392;9.998;2023-02-24T06:25:53;6.22;;;3.88;;
9156;SDS011;4613;48.392;9.998;2023-02-24T06:28:45;4.68;;;3.47;;
9156;SDS011;4613;48.392;9.998;2023-02-24T06:31:35;4.30;;;3.33;;
9156;SDS011;4613;48.392;9.998;2023-02-24T06:34:25;7.32;;;3.58;;
9156;SDS011;4613;48.392;9.998;2023-02-24T06:37:15;4.13;;;3.30;;
9156;SDS011;4613;48.392;9.998;2023-02-24T06:40:05;9.07;;;4.35;;
9156;SDS011;4613;48.392;9.998;2023-02-24T06:43:05;5.72;;;3.92;;
9156;SDS011;4613;48.392;9.998;2023-02-24T06:45:57;8.40;;;3.63;;
9156;SDS011;4613;48.392;9.998;2023-02-24T06:48:49;10.50;;;4.53;;
9156;SDS011;4613;48.392;9.998;2023-02-24T06:51:40;7.75;;;4.43;;
9156;SDS011;4613;48.392;9.998;2023-02-24T06:54:31;7.32;;;4.20;;
9156;SDS011;4613;48.392;9.998;2023-02-24T06:57:23;12.00;;;5.13;;
9156;SDS011;4613;48.392;9.998;2023-02-24T07:00:13;11.95;;;4.47;;
9156;SDS011;4613;48.392;9.998;2023-02-24T07:03:07;6.00;;;4.03;;
9156;SDS011;4613;48.392;9.998;2023-02-24T07:06:05;8.13;;;4.32;;
9156;SDS011;4613;48.392;9.998;2023-02-24T07:09:11;7.88;;;4.53;;
9156;SDS011;4613;48.392;9.998;2023-02-24T07:12:02;6.57;;;4.72;;
9156;SDS011;4613;48.392;9.998;2023-02-24T07:14:52;6.35;;;3.78;;
9156;SDS011;4613;48.392;9.998;2023-02-24T07:17:41;7.05;;;3.88;;
9156;SDS011;4613;48.392;9.998;2023-02-24T07:20:32;7.50;;;3.75;;
9156;SDS011;4613;48.392;9.998;2023-02-24T07:23:22;7.82;;;4.43;;
9156;SDS011;4613;48.392;9.998;2023-02-24T07:26:13;11.15;;;4.22;;
9156;SDS011;4613;48.392;9.998;2023-02-24T07:29:07;5.85;;;4.32;;
9156;SDS011;4613;48.392;9.998;2023-02-24T07:31:59;9.15;;;4.35;;
9156;SDS011;4613;48.392;9.998;2023-02-24T07:34:51;6.75;;;4.75;;
9156;SDS011;4613;48.392;9.998;2023-02-24T07:37:40;7.38;;;4.70;;
9156;SDS011;4613;48.392;9.998;2023-02-24T07:40:31;5.68;;;3.70;;
9156;SDS011;4613;48.392;9.998;2023-02-24T07:43:21;5.65;;;3.78;;
9156;SDS011;4613;48.392;9.998;2023-02-24T07:46:13;6.35;;;3.83;;
9156;SDS011;4613;48.392;9.998;2023-02-24T07:49:04;5.97;;;4.13;;
9156;SDS011;4613;48.392;9.998;2023-02-24T07:54:56;6.68;;;4.45;;
9156;SDS011;4613;48.392;9.998;2023-02-24T07:57:46;8.10;;;4.90;;
9156;SDS011;4613;48.392;9.998;2023-02-24T08:00:36;10.27;;;4.95;;
9156;SDS011;4613;48.392;9.998;2023-02-24T08:03:45;7.65;;;4.88;;
9156;SDS011;4613;48.392;9.998;2023-02-24T08:06:35;8.30;;;4.38;;
9156;SDS011;4613;48.392;9.998;2023-02-24T08:09:27;8.95;;;5.25;;
9156;SDS011;4613;48.392;9.998;2023-02-24T08:12:33;10.00;;;4.95;;
9156;SDS011;4613;48.392;9.998;2023-02-24T08:15:23;7.60;;;5.05;;
9156;SDS011;4613;48.392;9.998;2023-02-24T08:18:14;13.27;;;5.28;;
9156;SDS011;4613;48.392;9.998;2023-02-24T08:21:07;6.82;;;3.42;;
9156;SDS011;4613;48.392;9.998;2023-02-24T08:23:56;7.95;;;4.57;;
9156;SDS011;4613;48.392;9.998;2023-02-24T08:26:50;7.82;;;4.18;;
9156;SDS011;4613;48.392;9.998;2023-02-24T08:29:53;8.75;;;4.57;;
9156;SDS011;4613;48.392;9.998;2023-02-24T08:32:47;10.45;;;4.93;;
9156;SDS011;4613;48.392;9.998;2023-02-24T08:35:44;8.07;;;5.07;;
9156;SDS011;4613;48.392;9.998;2023-02-24T08:38:38;10.68;;;5.57;;
9156;SDS011;4613;48.392;9.998;2023-02-24T08:41:29;8.45;;;4.75;;
9156;SDS011;4613;48.392;9.998;2023-02-24T08:44:32;7.60;;;4.60;;
9156;SDS011;4613;48.392;9.998;2023-02-24T08:47:23;13.75;;;6.07;;
9156;SDS011;4613;48.392;9.998;2023-02-24T08:50:19;8.82;;;4.85;;
9156;SDS011;4613;48.392;9.998;2023-02-24T08:53:09;9.85;;;4.68;;
9156;SDS011;4613;48.392;9.998;2023-02-24T08:56:03;9.77;;;5.65;;
9156;SDS011;4613;48.392;9.998;2023-02-24T08:59:02;12.68;;;5.40;;
9156;SDS011;4613;48.392;9.998;2023-02-24T09:01:54;12.03;;;5.53;;
9156;SDS011;4613;48.392;9.998;2023-02-24T09:05:06;10.57;;;5.72;;
9156;SDS011;4613;48.392;9.998;2023-02-24T09:07:58;10.98;;;5.53;;
9156;SDS011;4613;48.392;9.998;2023-02-24T09:10:55;10.52;;;5.43;;
9156;SDS011;4613;48.392;9.998;2023-02-24T09:13:47;11.55;;;5.90;;
9156;SDS011;4613;48.392;9.998;2023-02-24T09:16:47;12.40;;;5.80;;
9156;SDS011;4613;48.392;9.998;2023-02-24T09:19:50;12.97;;;6.53;;
9156;SDS011;4613;48.392;9.998;2023-02-24T09:22:40;11.50;;;5.30;;
9156;SDS011;4613;48.392;9.998;2023-02-24T09:25:43;11.40;;;5.87;;
9156;SDS011;4613;48.392;9.998;2023-02-24T09:28:36;10.77;;;5.03;;
9156;SDS011;4613;48.392;9.998;2023-02-24T09:31:38;10.37;;;5.77;;
9156;SDS011;4613;48.392;9.998;2023-02-24T09:34:29;11.03;;;5.70;;
9156;SDS011;4613;48.392;9.998;2023-02-24T09:37:26;11.47;;;5.60;;
9156;SDS011;4613;48.392;9.998;2023-02-24T09:40:15;7.83;;;5.00;;
9156;SDS011;4613;48.392;9.998;2023-02-24T09:43:11;7.53;;;5.07;;
9156;SDS011;4613;48.392;9.998;2023-02-24T09:46:13;9.37;;;5.30;;
9156;SDS011;4613;48.392;9.998;2023-02-24T09:49:15;13.13;;;6.13;;
9156;SDS011;4613;48.392;9.998;2023-02-24T09:52:10;10.73;;;5.87;;
9156;SDS011;4613;48.392;9.998;2023-02-24T09:58:54;13.13;;;5.53;;
9156;SDS011;4613;48.392;9.998;2023-02-24T10:05:29;10.30;;;5.70;;
9156;SDS011;4613;48.392;9.998;2023-02-24T10:08:31;10.70;;;5.43;;
9156;SDS011;4613;48.392;9.998;2023-02-24T10:11:23;13.17;;;5.23;;
9156;SDS011;4613;48.392;9.998;2023-02-24T10:17:29;9.33;;;5.83;;
9156;SDS011;4613;48.392;9.998;2023-02-24T10:20:31;13.53;;;5.67;;
9156;SDS011;4613;48.392;9.998;2023-02-24T10:23:38;12.17;;;6.50;;
9156;SDS011;4613;48.392;9.998;2023-02-24T10:26:46;11.33;;;5.83;;
9156;SDS011;4613;48.392;9.998;2023-02-24T10:33:22;11.93;;;6.40;;
9156;SDS011;4613;48.392;9.998;2023-02-24T10:36:18;10.93;;;5.90;;
9156;SDS011;4613;48.392;9.998;2023-02-24T10:39:17;13.97;;;6.40;;
9156;SDS011;4613;48.392;9.998;2023-02-24T10:42:23;10.30;;;5.67;;
9156;SDS011;4613;48.392;9.998;2023-02-24T10:45:21;8.53;;;5.70;;
9156;SDS011;4613;48.392;9.998;2023-02-24T10:48:23;12.70;;;6.50;;
9156;SDS011;4613;48.392;9.998;2023-02-24T10:51:14;11.97;;;5.77;;
9156;SDS011;4613;48.392;9.998;2023-02-24T10:54:11;9.30;;;5.37;;
9156;SDS011;4613;48.392;9.998;2023-02-24T10:57:21;11.13;;;5.33;;
9156;SDS011;4613;48.392;9.998;2023-02-24T11:00:25;9.10;;;5.03;;
9156;SDS011;4613;48.392;9.998;2023-02-24T11:03:39;7.53;;;4.93;;
9156;SDS011;4613;48.392;9.998;2023-02-24T11:07:05;13.23;;;5.40;;
9156;SDS011;4613;48.392;9.998;2023-02-24T11:10:22;11.23;;;5.63;;
9156;SDS011;4613;48.392;9.998;2023-02-24T11:13:20;11.50;;;6.40;;
9156;SDS011;4613;48.392;9.998;2023-02-24T11:16:38;13.70;;;6.17;;
9156;SDS011;4613;48.392;9.998;2023-02-24T11:19:53;10.87;;;5.50;;
9156;SDS011;4613;48.392;9.998;2023-02-24T11:22:45;14.37;;;7.00;;
9156;SDS011;4613;48.392;9.998;2023-02-24T11:25:59;14.57;;;6.70;;
9156;SDS011;4613;48.392;9.998;2023-02-24T11:32:09;11.67;;;7.07;;
9156;SDS011;4613;48.392;9.998;2023-02-24T11:35:32;13.73;;;7.63;;
9156;SDS011;4613;48.392;9.998;2023-02-24T11:38:45;12.67;;;6.63;;
9156;SDS011;4613;48.392;9.998;2023-02-24T11:41:56;12.17;;;6.93;;
9156;SDS011;4613;48.392;9.998;2023-02-24T11:48:23;9.83;;;6.13;;
9156;SDS011;4613;48.392;9.998;2023-02-24T11:51:18;9.47;;;5.80;;
9156;SDS011;4613;48.392;9.998;2023-02-24T11:54:12;12.73;;;6.10;;
9156;SDS011;4613;48.392;9.998;2023-02-24T11:57:05;9.50;;;5.43;;
9156;SDS011;4613;48.392;9.998;2023-02-24T12:03:13;9.20;;;5.60;;
9156;SDS011;4613;48.392;9.998;2023-02-24T12:06:34;8.00;;;4.80;;
9156;SDS011;4613;48.392;9.998;2023-02-24T12:09:31;8.07;;;5.30;;
9156;SDS011;4613;48.392;9.998;2023-02-24T12:15:30;8.37;;;4.50;;
9156;SDS011;4613;48.392;9.998;2023-02-24T12:18:31;6.10;;;2.90;;
9156;SDS011;4613;48.392;9.998;2023-02-24T12:21:27;7.20;;;2.77;;
9156;SDS011;4613;48.392;9.998;2023-02-24T12:24:27;4.87;;;2.63;;
9156;SDS011;4613;48.392;9.998;2023-02-24T12:27:33;4.43;;;2.43;;
9156;SDS011;4613;48.392;9.998;2023-02-24T12:30:40;4.23;;;2.17;;
9156;SDS011;4613;48.392;9.998;2023-02-24T12:34:04;7.90;;;2.60;;
9156;SDS011;4613;48.392;9.998;2023-02-24T12:46:37;3.83;;;1.93;;
9156;SDS011;4613;48.392;9.998;2023-02-24T12:53:00;2.90;;;1.90;;
9156;SDS011;4613;48.392;9.998;2023-02-24T12:56:08;5.57;;;2.10;;
9156;SDS011;4613;48.392;9.998;2023-02-24T12:59:01;4.90;;;1.90;;
9156;SDS011;4613;48.392;9.998;2023-02-24T13:01:57;3.53;;;1.67;;
9156;SDS011;4613;48.392;9.998;2023-02-24T13:11:24;6.03;;;1.80;;
9156;SDS011;4613;48.392;9.998;2023-02-24T13:14:33;1.77;;;1.63;;
9156;SDS011;4613;48.392;9.998;2023-02-24T13:17:26;1.90;;;1.67;;
9156;SDS011;4613;48.392;9.998;2023-02-24T13:20:30;1.80;;;1.63;;
9156;SDS011;4613;48.392;9.998;2023-02-24T13:23:21;3.77;;;1.50;;
9156;SDS011;4613;48.392;9.998;2023-02-24T13:26:11;2.57;;;1.60;;
9156;SDS011;4613;48.392;9.998;2023-02-24T13:29:11;3.73;;;1.53;;
9156;SDS011;4613;48.392;9.998;2023-02-24T13:32:01;3.63;;;1.57;;
9156;SDS011;4613;48.392;9.998;2023-02-24T13:34:52;3.27;;;2.23;;
9156;SDS011;4613;48.392;9.998;2023-02-24T13:37:43;3.73;;;1.70;;
9156;SDS011;4613;48.392;9.998;2023-02-24T13:40:34;1.83;;;1.27;;
9156;SDS011;4613;48.392;9.998;2023-02-24T13:43:26;2.77;;;1.50;;
9156;SDS011;4613;48.392;9.998;2023-02-24T13:46:16;6.47;;;2.20;;
9156;SDS011;4613;48.392;9.998;2023-02-24T13:58:27;2.17;;;1.47;;
9156;SDS011;4613;48.392;9.998;2023-02-24T14:01:23;2.00;;;1.47;;
9156;SDS011;4613;48.392;9.998;2023-02-24T14:04:17;3.00;;;1.63;;
9156;SDS011;4613;48.392;9.998;2023-02-24T14:07:14;2.97;;;1.67;;
9156;SDS011;4613;48.392;9.998;2023-02-24T14:10:16;3.37;;;1.73;;
9156;SDS011;4613;48.392;9.998;2023-02-24T14:13:15;4.13;;;1.60;;
9156;SDS011;4613;48.392;9.998;2023-02-24T14:16:09;6.00;;;1.60;;
9156;SDS011;4613;48.392;9.998;2023-02-24T14:19:03;4.90;;;1.73;;
9156;SDS011;4613;48.392;9.998;2023-02-24T14:21:59;4.77;;;1.80;;
9156;SDS011;4613;48.392;9.998;2023-02-24T14:24:59;3.70;;;1.60;;
9156;SDS011;4613;48.392;9.998;2023-02-24T14:31:49;2.07;;;1.60;;
9156;SDS011;4613;48.392;9.998;2023-02-24T14:34:44;2.70;;;1.70;;
9156;SDS011;4613;48.392;9.998;2023-02-24T14:37:35;2.33;;;1.50;;
9156;SDS011;4613;48.392;9.998;2023-02-24T14:40:24;3.73;;;2.20;;
9156;SDS011;4613;48.392;9.998;2023-02-24T14:43:14;6.63;;;2.20;;
9156;SDS011;4613;48.392;9.998;2023-02-24T14:46:04;4.33;;;1.80;;
9156;SDS011;4613;48.392;9.998;2023-02-24T14:48:55;4.90;;;2.10;;
9156;SDS011;4613;48.392;9.998;2023-02-24T14:51:45;2.77;;;1.93;;
9156;SDS011;4613;48.392;9.998;2023-02-24T14:57:43;2.87;;;2.13;;
9156;SDS011;4613;48.392;9.998;2023-02-24T15:01:05;4.23;;;2.00;;
9156;SDS011;4613;48.392;9.998;2023-02-24T15:07:18;4.43;;;1.90;;
9156;SDS011;4613;48.392;9.998;2023-02-24T15:10:17;4.07;;;2.03;;
9156;SDS011;4613;48.392;9.998;2023-02-24T15:13:21;2.73;;;1.93;;
9156;SDS011;4613;48.392;9.998;2023-02-24T15:22:30;4.80;;;2.03;;
9156;SDS011;4613;48.392;9.998;2023-02-24T15:25:23;3.27;;;2.03;;
9156;SDS011;4613;48.392;9.998;2023-02-24T15:28:21;2.20;;;2.00;;
9156;SDS011;4613;48.392;9.998;2023-02-24T15:31:24;2.57;;;1.97;;
9156;SDS011;4613;48.392;9.998;2023-02-24T15:34:17;3.63;;;1.90;;
9156;SDS011;4613;48.392;9.998;2023-02-24T15:37:12;3.97;;;2.27;;
9156;SDS011;4613;48.392;9.998;2023-02-24T15:40:06;2.33;;;2.10;;
9156;SDS011;4613;48.392;9.998;2023-02-24T15:43:08;2.20;;;1.77;;
9156;SDS011;4613;48.392;9.998;2023-02-24T15:49:06;2.27;;;1.90;;
9156;SDS011;4613;48.392;9.998;2023-02-24T15:51:58;3.10;;;1.67;;
9156;SDS011;4613;48.392;9.998;2023-02-24T15:54:52;3.07;;;2.00;;
9156;SDS011;4613;48.392;9.998;2023-02-24T15:57:46;10.30;;;2.17;;
9156;SDS011;4613;48.392;9.998;2023-02-24T16:00:43;4.47;;;2.60;;
9156;SDS011;4613;48.392;9.998;2023-02-24T16:03:33;6.07;;;2.10;;
9156;SDS011;4613;48.392;9.998;2023-02-24T16:06:23;2.97;;;2.07;;
9156;SDS011;4613;48.392;9.998;2023-02-24T16:09:13;2.40;;;2.00;;
9156;SDS011;4613;48.392;9.998;2023-02-24T16:12:06;2.70;;;2.20;;
9156;SDS011;4613;48.392;9.998;2023-02-24T16:15:00;3.93;;;1.83;;
9156;SDS011;4613;48.392;9.998;2023-02-24T16:17:53;6.33;;;2.30;;
9156;SDS011;4613;48.392;9.998;2023-02-24T16:20:44;3.50;;;2.00;;
9156;SDS011;4613;48.392;9.998;2023-02-24T16:23:41;2.83;;;2.17;;
9156;SDS011;4613;48.392;9.998;2023-02-24T16:26:34;2.77;;;1.97;;
9156;SDS011;4613;48.392;9.998;2023-02-24T16:29:25;5.03;;;2.20;;
9156;SDS011;4613;48.392;9.998;2023-02-24T16:32:14;3.37;;;2.07;;
9156;SDS011;4613;48.392;9.998;2023-02-24T16:35:04;3.33;;;2.07;;
9156;SDS011;4613;48.392;9.998;2023-02-24T16:37:59;4.03;;;2.10;;
9156;SDS011;4613;48.392;9.998;2023-02-24T16:40:48;3.07;;;1.93;;
9156;SDS011;4613;48.392;9.998;2023-02-24T16:43:38;3.07;;;2.27;;
9156;SDS011;4613;48.392;9.998;2023-02-24T16:46:31;4.97;;;2.20;;
9156;SDS011;4613;48.392;9.998;2023-02-24T16:49:25;3.67;;;1.93;;
9156;SDS011;4613;48.392;9.998;2023-02-24T16:52:15;3.27;;;2.10;;
9156;SDS011;4613;48.392;9.998;2023-02-24T16:55:10;3.20;;;2.00;;
9156;SDS011;4613;48.392;9.998;2023-02-24T16:58:01;4.33;;;2.07;;
9156;SDS011;4613;48.392;9.998;2023-02-24T17:00:52;5.73;;;2.53;;
9156;SDS011;4613;48.392;9.998;2023-02-24T17:03:47;3.27;;;2.13;;
9156;SDS011;4613;48.392;9.998;2023-02-24T17:06:39;2.20;;;1.80;;
9156;SDS011;4613;48.392;9.998;2023-02-24T17:09:28;5.97;;;2.67;;
9156;SDS011;4613;48.392;9.998;2023-02-24T17:12:20;2.97;;;2.33;;
9156;SDS011;4613;48.392;9.998;2023-02-24T17:15:13;3.17;;;2.13;;
9156;SDS011;4613;48.392;9.998;2023-02-24T17:18:05;3.63;;;2.50;;
9156;SDS011;4613;48.392;9.998;2023-02-24T17:20:54;3.57;;;2.10;;
9156;SDS011;4613;48.392;9.998;2023-02-24T17:23:44;3.80;;;2.00;;
9156;SDS011;4613;48.392;9.998;2023-02-24T17:26:33;3.30;;;2.23;;
9156;SDS011;4613;48.392;9.998;2023-02-24T17:29:23;3.03;;;2.07;;
9156;SDS011;4613;48.392;9.998;2023-02-24T17:32:13;3.93;;;2.67;;
9156;SDS011;4613;48.392;9.998;2023-02-24T17:35:02;4.93;;;2.43;;
9156;SDS011;4613;48.392;9.998;2023-02-24T17:37:51;10.07;;;2.80;;
9156;SDS011;4613;48.392;9.998;2023-02-24T17:40:41;6.87;;;2.60;;
9156;SDS011;4613;48.392;9.998;2023-02-24T17:43:32;7.43;;;2.53;;
9156;SDS011;4613;48.392;9.998;2023-02-24T17:46:22;5.33;;;2.33;;
9156;SDS011;4613;48.392;9.998;2023-02-24T17:49:12;4.23;;;2.33;;
9156;SDS011;4613;48.392;9.998;2023-02-24T17:52:01;3.30;;;2.17;;
9156;SDS011;4613;48.392;9.998;2023-02-24T17:54:50;4.63;;;2.53;;
9156;SDS011;4613;48.392;9.998;2023-02-24T17:57:40;3.70;;;2.30;;
9156;SDS011;4613;48.392;9.998;2023-02-24T18:00:29;4.80;;;2.30;;
9156;SDS011;4613;48.392;9.998;2023-02-24T18:03:21;5.53;;;2.53;;
9156;SDS011;4613;48.392;9.998;2023-02-24T18:06:11;4.10;;;2.27;;
9156;SDS011;4613;48.392;9.998;2023-02-24T18:09:01;6.03;;;2.70;;
9156;SDS011;4613;48.392;9.998;2023-02-24T18:11:50;4.73;;;2.83;;
9156;SDS011;4613;48.392;9.998;2023-02-24T18:14:39;3.90;;;2.83;;
9156;SDS011;4613;48.392;9.998;2023-02-24T18:17:29;4.90;;;2.80;;
9156;SDS011;4613;48.392;9.998;2023-02-24T18:20:21;6.70;;;2.73;;
9156;SDS011;4613;48.392;9.998;2023-02-24T18:23:11;4.90;;;2.93;;
9156;SDS011;4613;48.392;9.998;2023-02-24T18:26:01;4.83;;;2.60;;
9156;SDS011;4613;48.392;9.998;2023-02-24T18:28:51;4.10;;;2.73;;
9156;SDS011;4613;48.392;9.998;2023-02-24T18:31:41;6.87;;;3.20;;
9156;SDS011;4613;48.392;9.998;2023-02-24T18:34:31;7.23;;;3.20;;
9156;SDS011;4613;48.392;9.998;2023-02-24T18:37:20;4.70;;;3.10;;
9156;SDS011;4613;48.392;9.998;2023-02-24T18:40:10;7.80;;;2.80;;
9156;SDS011;4613;48.392;9.998;2023-02-24T18:42:59;6.73;;;3.00;;
9156;SDS011;4613;48.392;9.998;2023-02-24T18:45:53;4.23;;;3.00;;
9156;SDS011;4613;48.392;9.998;2023-02-24T18:48:44;4.73;;;3.07;;
9156;SDS011;4613;48.392;9.998;2023-02-24T18:51:34;5.53;;;2.97;;
9156;SDS011;4613;48.392;9.998;2023-02-24T18:54:23;5.80;;;2.53;;
9156;SDS011;4613;48.392;9.998;2023-02-24T18:57:12;3.63;;;2.50;;
9156;SDS011;4613;48.392;9.998;2023-02-24T19:00:03;5.77;;;2.50;;
9156;SDS011;4613;48.392;9.998;2023-02-24T19:02:57;5.23;;;2.90;;
9156;SDS011;4613;48.392;9.998;2023-02-24T19:05:46;7.20;;;2.90;;
9156;SDS011;4613;48.392;9.998;2023-02-24T19:08:37;4.27;;;2.77;;
9156;SDS011;4613;48.392;9.998;2023-02-24T19:11:28;5.40;;;2.80;;
9156;SDS011;4613;48.392;9.998;2023-02-24T19:14:17;4.40;;;2.83;;
9156;SDS011;4613;48.392;9.998;2023-02-24T19:17:07;5.40;;;2.50;;
9156;SDS011;4613;48.392;9.998;2023-02-24T19:19:56;4.70;;;2.87;;
9156;SDS011;4613;48.392;9.998;2023-02-24T19:22:46;4.50;;;2.70;;
9156;SDS011;4613;48.392;9.998;2023-02-24T19:25:37;5.97;;;2.70;;
9156;SDS011;4613;48.392;9.998;2023-02-24T19:28:26;3.33;;;2.53;;
9156;SDS011;4613;48.392;9.998;2023-02-24T19:31:18;4.37;;;2.40;;
9156;SDS011;4613;48.392;9.998;2023-02-24T19:34:11;3.53;;;2.30;;
9156;SDS011;4613;48.392;9.998;2023-02-24T19:37:01;3.50;;;2.20;;
9156;SDS011;4613;48.392;9.998;2023-02-24T19:39:50;4.10;;;2.10;;
9156;SDS011;4613;48.392;9.998;2023-02-24T19:42:39;4.43;;;2.20;;
9156;SDS011;4613;48.392;9.998;2023-02-24T19:45:30;3.90;;;2.33;;
9156;SDS011;4613;48.392;9.998;2023-02-24T19:48:21;3.13;;;2.40;;
9156;SDS011;4613;48.392;9.998;2023-02-24T19:51:15;3.27;;;2.17;;
9156;SDS011;4613;48.392;9.998;2023-02-24T19:54:06;3.43;;;2.50;;
9156;SDS011;4613;48.392;9.998;2023-02-24T19:56:58;1.93;;;1.47;;